sensor_id;sensor_type;location;lat;lon;timestamp;pressure;altitude;pressure_sealevel;temperature;humidity
18264;BME280;9258;48.668;9.172;2022-08-11T00:00:10;97013.03;;;19.71;47.59
18264;BME280;9258;48.668;9.172;2022-08-11T00:03:13;97009.31;;;19.72;48.21
18264;BME280;9258;48.668;9.172;2022-08-11T00:06:23;97016.19;;;19.73;48.02
18264;BME280;9258;48.668;9.172;2022-08-11T00:09:31;97015.94;;;19.69;47.62
18264;BME280;9258;48.668;9.172;2022-08-11T00:12:33;97016.19;;;19.73;47.51
18264;BME280;9258;48.668;9.172;2022-08-11T00:15:41;97009.06;;;19.68;48.38
18264;BME280;9258;48.668;9.172;2022-08-11T00:18:45;97012.00;;;19.67;48.33
18264;BME280;9258;48.668;9.172;2022-08-11T00:21:47;97009.63;;;19.65;47.89
18264;BME280;9258;48.668;9.172;2022-08-11T00:24:49;97007.50;;;19.62;48.29
18264;BME280;9258;48.668;9.172;2022-08-11T00:27:51;97010.69;;;19.64;48.06
18264;BME280;9258;48.668;9.172;2022-08-11T00:30:55;97009.38;;;19.62;48.49
18264;BME280;9258;48.668;9.172;2022-08-11T00:33:59;97015.50;;;19.57;48.39
18264;BME280;9258;48.668;9.172;2022-08-11T00:37:03;97007.06;;;19.50;49.26
18264;BME280;9258;48.668;9.172;2022-08-11T00:40:13;97008.13;;;19.49;48.92
18264;BME280;9258;48.668;9.172;2022-08-11T00:43:21;97010.22;;;19.52;48.31
18264;BME280;9258;48.668;9.172;2022-08-11T00:46:34;97006.00;;;19.51;49.24
18264;BME280;9258;48.668;9.172;2022-08-11T00:49:50;97009.41;;;19.47;48.51
18264;BME280;9258;48.668;9.172;2022-08-11T00:53:02;97011.53;;;19.44;49.79
18264;BME280;9258;48.668;9.172;2022-08-11T01:00:01;97012.34;;;19.45;48.32
18264;BME280;9258;48.668;9.172;2022-08-11T01:03:27;97011.28;;;19.46;48.96
18264;BME280;9258;48.668;9.172;2022-08-11T01:06:49;97001.72;;;19.45;49.25
18264;BME280;9258;48.668;9.172;2022-08-11T01:10:10;97009.22;;;19.38;49.46
18264;BME280;9258;48.668;9.172;2022-08-11T01:13:24;97005.28;;;19.30;50.12
18264;BME280;9258;48.668;9.172;2022-08-11T01:17:02;97007.41;;;19.28;50.10
18264;BME280;9258;48.668;9.172;2022-08-11T01:20:17;97005.28;;;19.25;49.92
18264;BME280;9258;48.668;9.172;2022-08-11T01:27:19;97005.28;;;19.20;51.10
18264;BME280;9258;48.668;9.172;2022-08-11T01:30:43;96999.22;;;19.20;50.55
18264;BME280;9258;48.668;9.172;2022-08-11T01:34:22;97001.63;;;19.11;51.44
18264;BME280;9258;48.668;9.172;2022-08-11T01:38:02;96996.88;;;19.08;52.05
18264;BME280;9258;48.668;9.172;2022-08-11T01:41:34;96996.31;;;19.11;51.61
18264;BME280;9258;48.668;9.172;2022-08-11T01:45:25;96990.22;;;19.11;51.85
18264;BME280;9258;48.668;9.172;2022-08-11T01:48:36;96991.06;;;19.06;51.13
18264;BME280;9258;48.668;9.172;2022-08-11T01:51:59;96997.44;;;19.05;50.97
18264;BME280;9258;48.668;9.172;2022-08-11T01:55:10;96988.41;;;19.01;51.96
18264;BME280;9258;48.668;9.172;2022-08-11T01:58:16;96986.06;;;18.94;52.09
18264;BME280;9258;48.668;9.172;2022-08-11T02:01:35;96983.69;;;18.93;51.55
18264;BME280;9258;48.668;9.172;2022-08-11T02:04:45;96982.63;;;18.89;52.09
18264;BME280;9258;48.668;9.172;2022-08-11T02:07:56;96976.84;;;18.82;52.57
18264;BME280;9258;48.668;9.172;2022-08-11T02:11:08;96986.13;;;18.79;53.52
18264;BME280;9258;48.668;9.172;2022-08-11T02:14:36;96978.16;;;18.74;52.50
18264;BME280;9258;48.668;9.172;2022-08-11T02:17:48;96986.94;;;18.69;52.25
18264;BME280;9258;48.668;9.172;2022-08-11T02:20:55;96986.41;;;18.67;54.52
18264;BME280;9258;48.668;9.172;2022-08-11T02:24:19;96973.44;;;18.61;54.64
18264;BME280;9258;48.668;9.172;2022-08-11T02:27:33;96973.16;;;18.52;55.48
18264;BME280;9258;48.668;9.172;2022-08-11T02:30:39;96968.41;;;18.49;54.82
18264;BME280;9258;48.668;9.172;2022-08-11T02:33:43;96969.75;;;18.47;56.12
18264;BME280;9258;48.668;9.172;2022-08-11T02:36:51;96971.88;;;18.45;56.01
18264;BME280;9258;48.668;9.172;2022-08-11T02:40:09;96966.56;;;18.45;55.71
18264;BME280;9258;48.668;9.172;2022-08-11T02:43:26;96968.41;;;18.49;54.86
18264;BME280;9258;48.668;9.172;2022-08-11T02:46:35;96962.34;;;18.44;56.33
18264;BME280;9258;48.668;9.172;2022-08-11T02:49:47;96966.84;;;18.43;56.18
18264;BME280;9258;48.668;9.172;2022-08-11T02:53:01;96971.59;;;18.41;55.48
18264;BME280;9258;48.668;9.172;2022-08-11T02:56:07;96972.13;;;18.43;56.15
18264;BME280;9258;48.668;9.172;2022-08-11T02:59:22;96972.13;;;18.43;55.53
18264;BME280;9258;48.668;9.172;2022-08-11T03:02:54;96967.09;;;18.42;56.34
18264;BME280;9258;48.668;9.172;2022-08-11T03:06:08;96963.91;;;18.40;56.22
18264;BME280;9258;48.668;9.172;2022-08-11T03:09:16;96973.75;;;18.34;56.69
18264;BME280;9258;48.668;9.172;2022-08-11T03:12:24;96965.25;;;18.27;56.58
18264;BME280;9258;48.668;9.172;2022-08-11T03:16:06;96965.28;;;18.22;57.14
18264;BME280;9258;48.668;9.172;2022-08-11T03:19:35;96974.00;;;18.17;56.77
18264;BME280;9258;48.668;9.172;2022-08-11T03:22:47;96971.38;;;18.17;56.40
18264;BME280;9258;48.668;9.172;2022-08-11T03:25:56;96970.56;;;18.12;57.66
18264;BME280;9258;48.668;9.172;2022-08-11T03:29:05;96980.91;;;18.08;59.23
18264;BME280;9258;48.668;9.172;2022-08-11T03:32:23;96980.91;;;18.03;58.63
18264;BME280;9258;48.668;9.172;2022-08-11T03:35:32;96979.31;;;18.02;58.60
18264;BME280;9258;48.668;9.172;2022-08-11T03:38:47;96990.94;;;18.01;58.21
18264;BME280;9258;48.668;9.172;2022-08-11T03:41:57;96980.13;;;17.97;58.16
18264;BME280;9258;48.668;9.172;2022-08-11T03:45:11;96981.97;;;17.97;59.44
18264;BME280;9258;48.668;9.172;2022-08-11T03:48:19;96986.19;;;17.98;59.80
18264;BME280;9258;48.668;9.172;2022-08-11T03:51:28;96988.03;;;17.92;59.68
18264;BME280;9258;48.668;9.172;2022-08-11T03:54:42;96989.34;;;17.90;59.70
18264;BME280;9258;48.668;9.172;2022-08-11T04:01:53;96984.06;;;17.85;62.19
18264;BME280;9258;48.668;9.172;2022-08-11T04:09:12;96990.69;;;17.82;61.98
18264;BME280;9258;48.668;9.172;2022-08-11T04:16:15;96985.13;;;17.79;63.04
18264;BME280;9258;48.668;9.172;2022-08-11T04:19:59;96983.25;;;17.79;62.29
18264;BME280;9258;48.668;9.172;2022-08-11T04:23:41;96984.31;;;17.78;62.16
18264;BME280;9258;48.668;9.172;2022-08-11T04:27:03;96984.84;;;17.80;63.85
18264;BME280;9258;48.668;9.172;2022-08-11T04:30:15;96987.78;;;17.84;62.78
18264;BME280;9258;48.668;9.172;2022-08-11T04:33:43;96986.72;;;17.90;63.78
18264;BME280;9258;48.668;9.172;2022-08-11T04:37:08;96970.31;;;17.93;62.04
18264;BME280;9258;48.668;9.172;2022-08-11T04:40:48;96982.22;;;18.00;61.48
18264;BME280;9258;48.668;9.172;2022-08-11T04:44:22;96988.31;;;18.11;61.86
18264;BME280;9258;48.668;9.172;2022-08-11T04:47:46;96976.66;;;18.17;61.10
18264;BME280;9258;48.668;9.172;2022-08-11T04:51:25;96986.44;;;18.32;61.81
18264;BME280;9258;48.668;9.172;2022-08-11T04:54:55;96987.22;;;18.43;60.24
18264;BME280;9258;48.668;9.172;2022-08-11T04:58:22;96989.06;;;18.57;60.81
18264;BME280;9258;48.668;9.172;2022-08-11T05:02:11;96991.19;;;18.70;60.74
18264;BME280;9258;48.668;9.172;2022-08-11T05:05:23;96991.94;;;18.81;60.13
18264;BME280;9258;48.668;9.172;2022-08-11T05:09:03;96997.16;;;18.96;59.88
18264;BME280;9258;48.668;9.172;2022-08-11T05:12:21;96996.38;;;19.06;59.25
18264;BME280;9258;48.668;9.172;2022-08-11T05:15:35;96993.41;;;19.18;59.16
18264;BME280;9258;48.668;9.172;2022-08-11T05:19:03;96994.91;;;19.34;57.05
18264;BME280;9258;48.668;9.172;2022-08-11T05:22:27;96996.16;;;19.47;55.82
18264;BME280;9258;48.668;9.172;2022-08-11T05:25:47;96995.59;;;19.60;56.53
18264;BME280;9258;48.668;9.172;2022-08-11T05:29:38;96995.25;;;19.71;55.34
18264;BME280;9258;48.668;9.172;2022-08-11T05:33:02;96994.91;;;19.83;54.25
18264;BME280;9258;48.668;9.172;2022-08-11T05:36:29;96994.00;;;19.98;53.68
18264;BME280;9258;48.668;9.172;2022-08-11T05:39:41;96994.72;;;20.08;52.33
18264;BME280;9258;48.668;9.172;2022-08-11T05:43:07;97001.84;;;20.13;52.97
18264;BME280;9258;48.668;9.172;2022-08-11T05:46:37;97000.19;;;20.22;53.16
18264;BME280;9258;48.668;9.172;2022-08-11T05:49:57;96996.91;;;20.35;53.13
18264;BME280;9258;48.668;9.172;2022-08-11T05:53:17;96997.84;;;20.49;52.52
18264;BME280;9258;48.668;9.172;2022-08-11T05:56:42;97001.19;;;20.60;51.92
18264;BME280;9258;48.668;9.172;2022-08-11T05:59:44;97007.94;;;20.76;50.84
18264;BME280;9258;48.668;9.172;2022-08-11T06:02:49;96999.63;;;20.83;51.56
18264;BME280;9258;48.668;9.172;2022-08-11T06:05:55;97009.63;;;20.91;51.94
18264;BME280;9258;48.668;9.172;2022-08-11T06:08:59;97004.72;;;21.03;51.83
18264;BME280;9258;48.668;9.172;2022-08-11T06:12:03;96997.38;;;21.14;52.06
18264;BME280;9258;48.668;9.172;2022-08-11T06:15:07;97001.34;;;21.22;52.20
18264;BME280;9258;48.668;9.172;2022-08-11T06:18:11;97000.34;;;21.36;51.11
18264;BME280;9258;48.668;9.172;2022-08-11T06:21:14;97003.69;;;21.47;50.74
18264;BME280;9258;48.668;9.172;2022-08-11T06:24:19;97002.22;;;21.54;50.07
18264;BME280;9258;48.668;9.172;2022-08-11T06:27:22;97004.91;;;21.73;49.57
18264;BME280;9258;48.668;9.172;2022-08-11T06:30:33;97009.19;;;21.88;49.21
18264;BME280;9258;48.668;9.172;2022-08-11T06:33:52;97003.38;;;22.05;49.04
18264;BME280;9258;48.668;9.172;2022-08-11T06:36:59;97004.41;;;22.22;48.25
18264;BME280;9258;48.668;9.172;2022-08-11T06:40:08;97000.91;;;22.27;48.52
18264;BME280;9258;48.668;9.172;2022-08-11T06:43:17;96997.41;;;22.45;47.55
18264;BME280;9258;48.668;9.172;2022-08-11T06:46:24;97001.75;;;22.55;48.42
18264;BME280;9258;48.668;9.172;2022-08-11T06:49:33;97002.06;;;22.67;47.95
18264;BME280;9258;48.668;9.172;2022-08-11T06:52:53;97004.00;;;22.80;48.77
18264;BME280;9258;48.668;9.172;2022-08-11T06:55:57;97000.56;;;22.93;46.97
18264;BME280;9258;48.668;9.172;2022-08-11T06:59:18;97000.22;;;23.09;47.45
18264;BME280;9258;48.668;9.172;2022-08-11T07:02:44;97012.19;;;23.25;45.45
18264;BME280;9258;48.668;9.172;2022-08-11T07:05:51;97007.53;;;23.30;46.11
18264;BME280;9258;48.668;9.172;2022-08-11T07:09:08;97003.94;;;23.49;45.00
18264;BME280;9258;48.668;9.172;2022-08-11T07:12:40;97011.09;;;23.53;45.09
18264;BME280;9258;48.668;9.172;2022-08-11T07:16:01;97002.06;;;23.63;45.46
18264;BME280;9258;48.668;9.172;2022-08-11T07:19:04;97009.13;;;23.81;45.07
18264;BME280;9258;48.668;9.172;2022-08-11T07:22:25;97008.53;;;24.06;43.61
18264;BME280;9258;48.668;9.172;2022-08-11T07:25:50;97000.75;;;24.19;43.48
18264;BME280;9258;48.668;9.172;2022-08-11T07:29:12;97002.66;;;24.40;42.50
18264;BME280;9258;48.668;9.172;2022-08-11T07:32:23;96998.09;;;24.63;42.55
18264;BME280;9258;48.668;9.172;2022-08-11T07:35:30;96992.34;;;24.87;40.78
18264;BME280;9258;48.668;9.172;2022-08-11T07:38:38;96997.38;;;25.20;40.81
18264;BME280;9258;48.668;9.172;2022-08-11T07:41:51;96994.44;;;25.56;40.54
18264;BME280;9258;48.668;9.172;2022-08-11T07:44:55;96998.09;;;25.86;39.35
18264;BME280;9258;48.668;9.172;2022-08-11T07:48:15;96998.88;;;26.03;39.29
18264;BME280;9258;48.668;9.172;2022-08-11T07:51:37;96996.78;;;26.52;38.11
18264;BME280;9258;48.668;9.172;2022-08-11T07:54:59;96989.75;;;26.77;37.35
18264;BME280;9258;48.668;9.172;2022-08-11T07:58:01;96989.00;;;27.06;36.87
18264;BME280;9258;48.668;9.172;2022-08-11T08:01:23;96987.06;;;27.44;35.77
18264;BME280;9258;48.668;9.172;2022-08-11T08:04:44;96998.19;;;27.64;35.06
18264;BME280;9258;48.668;9.172;2022-08-11T08:08:06;96989.44;;;28.08;33.82
18264;BME280;9258;48.668;9.172;2022-08-11T08:11:26;97005.56;;;28.29;33.94
18264;BME280;9258;48.668;9.172;2022-08-11T08:14:46;96989.72;;;28.60;33.67
18264;BME280;9258;48.668;9.172;2022-08-11T08:18:07;96992.59;;;29.00;33.05
18264;BME280;9258;48.668;9.172;2022-08-11T08:21:11;97003.69;;;29.11;32.36
18264;BME280;9258;48.668;9.172;2022-08-11T08:24:14;96997.75;;;29.42;31.95
18264;BME280;9258;48.668;9.172;2022-08-11T08:27:16;96995.72;;;29.91;31.71
18264;BME280;9258;48.668;9.172;2022-08-11T08:30:19;96999.72;;;29.82;31.08
18264;BME280;9258;48.668;9.172;2022-08-11T08:33:40;97000.50;;;30.38;30.32
18264;BME280;9258;48.668;9.172;2022-08-11T08:36:43;97001.09;;;30.75;28.75
18264;BME280;9258;48.668;9.172;2022-08-11T08:39:46;96998.66;;;30.86;28.85
18264;BME280;9258;48.668;9.172;2022-08-11T08:42:50;97006.06;;;31.36;28.43
18264;BME280;9258;48.668;9.172;2022-08-11T08:45:54;97011.41;;;31.67;28.39
18264;BME280;9258;48.668;9.172;2022-08-11T08:49:00;97015.34;;;32.08;27.81
18264;BME280;9258;48.668;9.172;2022-08-11T08:52:05;97009.59;;;32.10;27.68
18264;BME280;9258;48.668;9.172;2022-08-11T08:55:11;96995.81;;;32.38;26.53
18264;BME280;9258;48.668;9.172;2022-08-11T08:58:18;97003.66;;;32.43;26.41
18264;BME280;9258;48.668;9.172;2022-08-11T09:01:21;97002.94;;;32.46;26.03
18264;BME280;9258;48.668;9.172;2022-08-11T09:04:26;96997.28;;;32.97;26.01
18264;BME280;9258;48.668;9.172;2022-08-11T09:07:29;97000.28;;;32.91;26.00
18264;BME280;9258;48.668;9.172;2022-08-11T09:10:32;97000.59;;;33.36;25.52
18264;BME280;9258;48.668;9.172;2022-08-11T09:13:34;96997.06;;;33.61;24.96
18264;BME280;9258;48.668;9.172;2022-08-11T09:16:37;96995.00;;;33.78;24.63
18264;BME280;9258;48.668;9.172;2022-08-11T09:19:40;97001.94;;;33.75;24.04
18264;BME280;9258;48.668;9.172;2022-08-11T09:22:43;96995.97;;;33.92;24.34
18264;BME280;9258;48.668;9.172;2022-08-11T09:26:02;97001.75;;;34.24;23.12
18264;BME280;9258;48.668;9.172;2022-08-11T09:29:28;97000.78;;;34.77;22.83
18264;BME280;9258;48.668;9.172;2022-08-11T09:32:31;97011.41;;;34.96;22.55
18264;BME280;9258;48.668;9.172;2022-08-11T09:35:36;97007.19;;;35.57;22.58
18264;BME280;9258;48.668;9.172;2022-08-11T09:38:39;97007.00;;;35.90;21.67
18264;BME280;9258;48.668;9.172;2022-08-11T09:41:59;96996.59;;;36.14;21.35
18264;BME280;9258;48.668;9.172;2022-08-11T09:45:02;97004.75;;;36.14;20.92
18264;BME280;9258;48.668;9.172;2022-08-11T09:48:04;97004.00;;;36.20;20.83
18264;BME280;9258;48.668;9.172;2022-08-11T09:51:09;97000.03;;;36.00;20.95
18264;BME280;9258;48.668;9.172;2022-08-11T09:54:10;96995.84;;;36.20;20.77
18264;BME280;9258;48.668;9.172;2022-08-11T09:57:12;96991.28;;;36.67;20.35
18264;BME280;9258;48.668;9.172;2022-08-11T10:00:33;96979.59;;;36.56;19.92
18264;BME280;9258;48.668;9.172;2022-08-11T10:03:38;96990.53;;;36.91;19.29
18264;BME280;9258;48.668;9.172;2022-08-11T10:06:47;96996.38;;;37.43;19.66
18264;BME280;9258;48.668;9.172;2022-08-11T10:10:02;96970.59;;;37.47;18.95
18264;BME280;9258;48.668;9.172;2022-08-11T10:13:07;96987.41;;;37.25;19.61
18264;BME280;9258;48.668;9.172;2022-08-11T10:16:09;96979.22;;;37.39;19.30
18264;BME280;9258;48.668;9.172;2022-08-11T10:19:12;96983.31;;;38.00;19.50
18264;BME280;9258;48.668;9.172;2022-08-11T10:22:17;96975.13;;;38.00;19.25
18264;BME280;9258;48.668;9.172;2022-08-11T10:25:36;96982.78;;;38.30;18.79
18264;BME280;9258;48.668;9.172;2022-08-11T10:28:56;96975.34;;;38.38;18.75
18264;BME280;9258;48.668;9.172;2022-08-11T10:31:59;96968.69;;;38.39;18.16
18264;BME280;9258;48.668;9.172;2022-08-11T10:35:20;96968.97;;;38.55;18.01
18264;BME280;9258;48.668;9.172;2022-08-11T10:38:27;96972.59;;;38.38;17.29
18264;BME280;9258;48.668;9.172;2022-08-11T10:41:30;96964.69;;;38.50;18.06
18264;BME280;9258;48.668;9.172;2022-08-11T10:44:53;96964.16;;;38.11;18.44
18264;BME280;9258;48.668;9.172;2022-08-11T10:47:56;96954.53;;;38.54;16.81
18264;BME280;9258;48.668;9.172;2022-08-11T10:50:58;96958.88;;;38.41;17.57
18264;BME280;9258;48.668;9.172;2022-08-11T10:54:16;96953.41;;;38.97;18.10
18264;BME280;9258;48.668;9.172;2022-08-11T10:57:35;96952.81;;;38.75;17.67
18264;BME280;9258;48.668;9.172;2022-08-11T11:00:56;96952.28;;;38.39;17.88
18264;BME280;9258;48.668;9.172;2022-08-11T11:04:02;96942.66;;;38.75;18.07
18264;BME280;9258;48.668;9.172;2022-08-11T11:07:08;96944.25;;;39.14;17.26
18264;BME280;9258;48.668;9.172;2022-08-11T11:10:14;96935.25;;;39.54;16.59
18264;BME280;9258;48.668;9.172;2022-08-11T11:13:16;96936.31;;;39.64;16.56
18264;BME280;9258;48.668;9.172;2022-08-11T11:16:36;96933.16;;;39.32;16.63
18264;BME280;9258;48.668;9.172;2022-08-11T11:19:58;96930.69;;;39.75;15.96
18264;BME280;9258;48.668;9.172;2022-08-11T11:23:03;96927.53;;;39.46;16.25
18264;BME280;9258;48.668;9.172;2022-08-11T11:26:21;96931.56;;;39.68;16.27
18264;BME280;9258;48.668;9.172;2022-08-11T11:29:42;96929.84;;;39.85;16.07
18264;BME280;9258;48.668;9.172;2022-08-11T11:32:58;96929.16;;;39.74;15.93
18264;BME280;9258;48.668;9.172;2022-08-11T11:36:10;96923.44;;;39.95;16.22
18264;BME280;9258;48.668;9.172;2022-08-11T11:39:17;96919.34;;;40.34;16.44
18264;BME280;9258;48.668;9.172;2022-08-11T11:42:22;96917.09;;;40.79;15.70
18264;BME280;9258;48.668;9.172;2022-08-11T11:45:24;96910.44;;;40.53;15.23
18264;BME280;9258;48.668;9.172;2022-08-11T11:48:26;96901.16;;;40.20;15.60
18264;BME280;9258;48.668;9.172;2022-08-11T11:51:28;96910.25;;;40.40;16.25
18264;BME280;9258;48.668;9.172;2022-08-11T11:54:31;96910.91;;;40.75;14.69
18264;BME280;9258;48.668;9.172;2022-08-11T11:57:37;96909.31;;;40.50;14.44
18264;BME280;9258;48.668;9.172;2022-08-11T12:00:56;96904.38;;;40.11;15.26
18264;BME280;9258;48.668;9.172;2022-08-11T12:04:19;96905.06;;;40.19;15.19
18264;BME280;9258;48.668;9.172;2022-08-11T12:07:22;96893.75;;;39.90;14.95
18264;BME280;9258;48.668;9.172;2022-08-11T12:10:47;96894.78;;;39.69;15.16
18264;BME280;9258;48.668;9.172;2022-08-11T12:13:51;96891.56;;;39.74;15.03
18264;BME280;9258;48.668;9.172;2022-08-11T12:16:54;96901.28;;;39.79;15.68
18264;BME280;9258;48.668;9.172;2022-08-11T12:19:56;96885.78;;;39.69;15.04
18264;BME280;9258;48.668;9.172;2022-08-11T12:22:58;96881.09;;;40.23;15.09
18264;BME280;9258;48.668;9.172;2022-08-11T12:26:18;96889.16;;;39.80;15.39
18264;BME280;9258;48.668;9.172;2022-08-11T12:29:39;96887.59;;;39.79;15.12
18264;BME280;9258;48.668;9.172;2022-08-11T12:32:41;96876.09;;;39.26;15.17
18264;BME280;9258;48.668;9.172;2022-08-11T12:35:43;96880.41;;;40.19;14.26
18264;BME280;9258;48.668;9.172;2022-08-11T12:38:48;96876.88;;;40.18;14.96
18264;BME280;9258;48.668;9.172;2022-08-11T12:41:51;96871.75;;;39.63;14.70
18264;BME280;9258;48.668;9.172;2022-08-11T12:45:12;96875.59;;;39.69;15.75
18264;BME280;9258;48.668;9.172;2022-08-11T12:48:32;96863.34;;;40.08;16.01
18264;BME280;9258;48.668;9.172;2022-08-11T12:51:53;96864.03;;;40.12;15.75
18264;BME280;9258;48.668;9.172;2022-08-11T12:55:02;96859.47;;;40.05;15.27
18264;BME280;9258;48.668;9.172;2022-08-11T12:58:08;96853.94;;;40.09;15.02
18264;BME280;9258;48.668;9.172;2022-08-11T13:01:19;96856.72;;;39.48;15.78
18264;BME280;9258;48.668;9.172;2022-08-11T13:04:40;96848.72;;;39.26;16.17
18264;BME280;9258;48.668;9.172;2022-08-11T13:07:55;96845.78;;;39.44;15.71
18264;BME280;9258;48.668;9.172;2022-08-11T13:10:58;96839.91;;;39.12;16.17
18264;BME280;9258;48.668;9.172;2022-08-11T13:14:18;96833.78;;;38.52;15.91
18264;BME280;9258;48.668;9.172;2022-08-11T13:17:22;96834.50;;;39.05;15.22
18264;BME280;9258;48.668;9.172;2022-08-11T13:20:25;96831.88;;;38.90;16.11
18264;BME280;9258;48.668;9.172;2022-08-11T13:23:27;96832.78;;;38.80;15.53
18264;BME280;9258;48.668;9.172;2022-08-11T13:26:34;96828.78;;;38.47;15.72
18264;BME280;9258;48.668;9.172;2022-08-11T13:29:36;96830.63;;;38.61;15.64
18264;BME280;9258;48.668;9.172;2022-08-11T13:32:41;96816.38;;;38.36;15.89
18264;BME280;9258;48.668;9.172;2022-08-11T13:35:46;96820.41;;;38.24;16.79
18264;BME280;9258;48.668;9.172;2022-08-11T13:38:49;96820.56;;;37.26;17.50
18264;BME280;9258;48.668;9.172;2022-08-11T13:41:52;96805.13;;;36.45;18.09
18264;BME280;9258;48.668;9.172;2022-08-11T13:44:56;96809.78;;;35.95;18.39
18264;BME280;9258;48.668;9.172;2022-08-11T13:48:00;96806.00;;;35.09;19.37
18264;BME280;9258;48.668;9.172;2022-08-11T13:51:03;96808.56;;;34.81;18.95
18264;BME280;9258;48.668;9.172;2022-08-11T13:54:25;96796.25;;;34.39;19.35
18264;BME280;9258;48.668;9.172;2022-08-11T13:57:29;96794.97;;;34.26;19.86
18264;BME280;9258;48.668;9.172;2022-08-11T14:00:32;96786.94;;;33.96;20.37
18264;BME280;9258;48.668;9.172;2022-08-11T14:03:39;96792.25;;;33.48;20.69
18264;BME280;9258;48.668;9.172;2022-08-11T14:06:45;96777.84;;;33.41;20.28
18264;BME280;9258;48.668;9.172;2022-08-11T14:09:57;96776.13;;;33.25;20.72
18264;BME280;9258;48.668;9.172;2022-08-11T14:13:00;96773.47;;;33.29;20.15
18264;BME280;9258;48.668;9.172;2022-08-11T14:16:24;96772.31;;;33.00;20.63
18264;BME280;9258;48.668;9.172;2022-08-11T14:19:29;96759.88;;;32.96;21.45
18264;BME280;9258;48.668;9.172;2022-08-11T14:22:34;96757.78;;;32.82;21.01
18264;BME280;9258;48.668;9.172;2022-08-11T14:25:39;96762.84;;;32.83;21.28
18264;BME280;9258;48.668;9.172;2022-08-11T14:29:05;96756.97;;;33.11;20.76
18264;BME280;9258;48.668;9.172;2022-08-11T14:32:08;96768.16;;;33.06;20.42
18264;BME280;9258;48.668;9.172;2022-08-11T14:35:12;96759.91;;;32.69;20.58
18264;BME280;9258;48.668;9.172;2022-08-11T14:38:15;96767.53;;;32.60;21.71
18264;BME280;9258;48.668;9.172;2022-08-11T14:41:16;96755.59;;;32.38;21.56
18264;BME280;9258;48.668;9.172;2022-08-11T14:44:37;96756.84;;;31.95;22.17
18264;BME280;9258;48.668;9.172;2022-08-11T14:47:59;96753.16;;;32.07;22.05
18264;BME280;9258;48.668;9.172;2022-08-11T14:51:03;96756.59;;;32.04;22.52
18264;BME280;9258;48.668;9.172;2022-08-11T14:54:05;96752.81;;;31.85;21.87
18264;BME280;9258;48.668;9.172;2022-08-11T14:57:25;96744.28;;;31.83;22.02
18264;BME280;9258;48.668;9.172;2022-08-11T15:00:29;96736.22;;;31.87;21.65
18264;BME280;9258;48.668;9.172;2022-08-11T15:03:33;96748.03;;;31.75;21.48
18264;BME280;9258;48.668;9.172;2022-08-11T15:06:36;96730.47;;;31.46;22.10
18264;BME280;9258;48.668;9.172;2022-08-11T15:09:39;96734.06;;;31.31;22.37
18264;BME280;9258;48.668;9.172;2022-08-11T15:12:42;96727.59;;;31.36;23.03
18264;BME280;9258;48.668;9.172;2022-08-11T15:15:45;96731.50;;;31.38;22.11
18264;BME280;9258;48.668;9.172;2022-08-11T15:19:04;96726.31;;;31.30;22.20
18264;BME280;9258;48.668;9.172;2022-08-11T15:22:08;96726.31;;;31.30;22.21
18264;BME280;9258;48.668;9.172;2022-08-11T15:25:28;96727.13;;;31.11;22.54
18264;BME280;9258;48.668;9.172;2022-08-11T15:28:38;96720.34;;;31.01;23.22
18264;BME280;9258;48.668;9.172;2022-08-11T15:31:58;96723.31;;;30.96;23.17
18264;BME280;9258;48.668;9.172;2022-08-11T15:35:18;96729.31;;;30.86;23.16
18264;BME280;9258;48.668;9.172;2022-08-11T15:38:43;96717.06;;;30.92;23.22
18264;BME280;9258;48.668;9.172;2022-08-11T15:41:50;96713.88;;;30.87;22.82
18264;BME280;9258;48.668;9.172;2022-08-11T15:45:12;96713.91;;;30.52;23.88
18264;BME280;9258;48.668;9.172;2022-08-11T15:48:40;96705.38;;;30.50;23.58
18264;BME280;9258;48.668;9.172;2022-08-11T15:51:45;96702.22;;;30.48;23.35
18264;BME280;9258;48.668;9.172;2022-08-11T15:54:50;96701.38;;;30.43;23.52
18264;BME280;9258;48.668;9.172;2022-08-11T15:57:54;96701.13;;;30.33;23.55
18264;BME280;9258;48.668;9.172;2022-08-11T16:01:14;96699.34;;;30.21;23.76
18264;BME280;9258;48.668;9.172;2022-08-11T16:04:36;96700.66;;;30.27;24.05
18264;BME280;9258;48.668;9.172;2022-08-11T16:07:40;96700.78;;;30.34;23.52
18264;BME280;9258;48.668;9.172;2022-08-11T16:10:48;96694.03;;;30.25;24.23
18264;BME280;9258;48.668;9.172;2022-08-11T16:13:52;96693.25;;;30.24;24.54
18264;BME280;9258;48.668;9.172;2022-08-11T16:17:13;96698.50;;;30.17;24.30
18264;BME280;9258;48.668;9.172;2022-08-11T16:20:19;96691.44;;;30.13;24.44
18264;BME280;9258;48.668;9.172;2022-08-11T16:23:22;96684.78;;;30.06;24.28
18264;BME280;9258;48.668;9.172;2022-08-11T16:26:29;96685.34;;;29.84;24.80
18264;BME280;9258;48.668;9.172;2022-08-11T16:29:32;96688.25;;;29.76;25.33
18264;BME280;9258;48.668;9.172;2022-08-11T16:32:38;96681.97;;;29.71;25.25
18264;BME280;9258;48.668;9.172;2022-08-11T16:35:42;96683.78;;;29.83;24.89
18264;BME280;9258;48.668;9.172;2022-08-11T16:39:02;96685.97;;;29.78;24.80
18264;BME280;9258;48.668;9.172;2022-08-11T16:42:07;96677.44;;;29.60;24.94
18264;BME280;9258;48.668;9.172;2022-08-11T16:45:27;96675.22;;;29.46;25.11
18264;BME280;9258;48.668;9.172;2022-08-11T16:48:47;96671.84;;;29.37;25.00
18264;BME280;9258;48.668;9.172;2022-08-11T16:51:49;96673.94;;;29.28;25.68
18264;BME280;9258;48.668;9.172;2022-08-11T16:54:51;96674.78;;;29.16;26.25
18264;BME280;9258;48.668;9.172;2022-08-11T16:57:54;96674.34;;;29.14;25.46
18264;BME280;9258;48.668;9.172;2022-08-11T17:01:15;96681.56;;;29.10;25.39
18264;BME280;9258;48.668;9.172;2022-08-11T17:04:33;96676.19;;;29.10;25.47
18264;BME280;9258;48.668;9.172;2022-08-11T17:07:55;96671.53;;;28.95;26.39
18264;BME280;9258;48.668;9.172;2022-08-11T17:11:18;96673.09;;;28.96;26.27
18264;BME280;9258;48.668;9.172;2022-08-11T17:14:43;96683.88;;;28.96;26.32
18264;BME280;9258;48.668;9.172;2022-08-11T17:17:46;96681.09;;;28.92;26.45
18264;BME280;9258;48.668;9.172;2022-08-11T17:20:48;96676.72;;;28.88;25.86
18264;BME280;9258;48.668;9.172;2022-08-11T17:23:53;96675.63;;;28.77;25.94
18264;BME280;9258;48.668;9.172;2022-08-11T17:26:56;96669.50;;;28.64;26.98
18264;BME280;9258;48.668;9.172;2022-08-11T17:30:02;96671.53;;;28.55;26.88